Time;durP1;ratioP1;P1;durP2;ratioP2;P2;SDS_P1;SDS_P2;PMS_P1;PMS_P2;Temp;Humidity;BMP_temperature;BMP_pressure;BME280_temperature;BME280_humidity;BME280_pressure;Samples;Min_cycle;Max_cycle;Signal;HPM_P1;HPM_P2
2022/10/14 00:01:35;;;;;;;14.57;13.00;;;13.00;99.90;;;;;;5043566;28;20630;-87
2022/10/14 00:04:02;;;;;;;16.10;14.00;;;12.60;99.90;;;;;;5038760;28;21276;-87
2022/10/14 00:06:31;;;;;;;15.07;13.60;;;12.60;99.90;;;;;;5041011;28;20634;-87
2022/10/14 00:09:00;;;;;;;14.17;12.87;;;13.10;99.90;;;;;;5040566;28;21176;-86
2022/10/14 00:11:29;;;;;;;16.73;11.10;;;12.90;99.90;;;;;;5043675;28;21176;-87
2022/10/14 00:13:59;;;;;;;14.27;12.80;;;13.00;99.90;;;;;;5039877;28;20714;-87
2022/10/14 00:16:28;;;;;;;12.40;11.30;;;12.60;99.90;;;;;;5039955;28;20625;-87
2022/10/14 00:18:55;;;;;;;12.57;11.57;;;12.90;99.90;;;;;;5039389;28;20629;-87
2022/10/14 00:21:22;;;;;;;12.07;10.97;;;12.80;99.90;;;;;;5043245;28;20626;-87
2022/10/14 00:23:49;;;;;;;12.33;11.00;;;12.60;99.90;;;;;;5041125;28;20653;-87
2022/10/14 00:26:19;;;;;;;11.50;10.50;;;12.70;99.90;;;;;;5047494;28;20630;-87
2022/10/14 00:28:46;;;;;;;12.03;10.97;;;12.60;99.90;;;;;;5044397;28;20630;-87
2022/10/14 00:31:15;;;;;;;11.80;10.10;;;13.10;99.90;;;;;;5046641;28;20644;-87
2022/10/14 00:33:42;;;;;;;11.93;10.40;;;12.60;99.90;;;;;;5044248;28;21233;-87
2022/10/14 00:36:12;;;;;;;13.33;10.97;;;13.00;99.90;;;;;;5038624;28;20725;-86
2022/10/14 00:38:39;;;;;;;11.37;10.30;;;13.00;99.90;;;;;;5046004;28;20713;-86
2022/10/14 00:41:07;;;;;;;12.00;10.80;;;12.70;99.90;;;;;;5039455;28;20900;-87
2022/10/14 00:43:51;;;;;;;11.27;9.93;;;12.60;99.90;;;;;;5039901;28;21248;-86
2022/10/14 00:46:19;;;;;;;10.57;9.57;;;13.00;99.90;;;;;;5043670;28;20614;-86
2022/10/14 00:48:46;;;;;;;10.47;9.50;;;13.10;99.90;;;;;;5045488;28;20640;-86
2022/10/14 00:51:13;;;;;;;11.33;10.33;;;12.80;99.90;;;;;;5045786;28;20622;-86
2022/10/14 00:53:43;;;;;;;11.97;10.83;;;12.80;99.90;;;;;;5039610;28;20645;-86
2022/10/14 00:56:11;;;;;;;12.13;10.47;;;12.60;99.90;;;;;;5045157;28;20664;-87
2022/10/14 00:58:38;;;;;;;11.83;10.77;;;12.50;99.90;;;;;;5044844;28;21378;-86
2022/10/14 01:01:06;;;;;;;11.40;10.20;;;13.10;99.90;;;;;;5047165;28;20638;-86
2022/10/14 01:03:34;;;;;;;12.73;10.30;;;13.00;99.90;;;;;;5042833;28;20650;-86
2022/10/14 01:06:09;;;;;;;15.77;12.50;;;13.00;99.90;;;;;;5047126;28;20618;-86
2022/10/14 01:08:44;;;;;;;14.10;12.80;;;13.00;99.90;;;;;;5046041;28;20970;-86
2022/10/14 01:11:17;;;;;;;12.70;11.60;;;12.60;99.90;;;;;;5045717;28;20621;-86
2022/10/14 01:13:50;;;;;;;12.80;11.80;;;13.10;99.90;;;;;;5039341;28;20650;-86
2022/10/14 01:16:23;;;;;;;14.07;12.03;;;12.70;99.90;;;;;;5041524;28;20650;-86
2022/10/14 01:19:05;;;;;;;13.10;12.10;;;12.90;99.90;;;;;;5039664;28;20637;-86
2022/10/14 01:21:38;;;;;;;15.13;13.63;;;13.00;99.90;;;;;;5046204;28;20759;-86
2022/10/14 01:24:40;;;;;;;16.73;12.13;;;12.90;99.90;;;;;;5043744;28;20674;-86
2022/10/14 01:27:49;;;;;;;13.30;12.20;;;13.10;99.90;;;;;;5045424;28;21218;-86
2022/10/14 01:30:21;;;;;;;12.93;11.63;;;13.30;99.90;;;;;;5004466;28;20635;-86
2022/10/14 01:33:06;;;;;;;13.07;11.80;;;13.10;99.90;;;;;;4998572;28;20679;-86
2022/10/14 01:35:50;;;;;;;12.60;11.40;;;13.00;99.90;;;;;;5029585;28;21049;-86
2022/10/14 01:38:22;;;;;;;13.90;12.60;;;13.00;99.90;;;;;;5042209;28;20622;-86
2022/10/14 01:40:52;;;;;;;12.90;11.60;;;12.80;99.90;;;;;;5044182;28;21092;-87
2022/10/14 01:43:22;;;;;;;12.97;11.73;;;12.70;99.90;;;;;;5043657;28;20650;-86
2022/10/14 01:45:53;;;;;;;12.33;11.13;;;13.20;99.90;;;;;;5039434;28;20633;-86
2022/10/14 01:48:24;;;;;;;13.20;11.53;;;12.80;99.90;;;;;;5041058;28;20638;-86
2022/10/14 01:50:54;;;;;;;13.17;11.97;;;13.00;99.90;;;;;;5044739;28;20618;-86
2022/10/14 01:53:24;;;;;;;11.73;10.73;;;13.20;99.90;;;;;;5042369;28;20679;-86
2022/10/14 01:55:54;;;;;;;11.90;10.70;;;12.80;99.90;;;;;;5042390;28;21085;-86
2022/10/14 01:58:26;;;;;;;11.90;10.40;;;12.90;99.90;;;;;;5041398;28;20627;-86
2022/10/14 02:00:54;;;;;;;13.20;10.40;;;13.10;99.90;;;;;;5046079;28;21172;-86
2022/10/14 02:03:21;;;;;;;12.20;11.00;;;12.70;99.90;;;;;;5043341;28;20661;-87
2022/10/14 02:05:54;;;;;;;13.40;10.97;;;13.10;99.90;;;;;;5046142;28;20633;-86
2022/10/14 02:08:36;;;;;;;13.90;12.00;;;13.10;99.90;;;;;;5046337;28;20633;-85
2022/10/14 02:11:11;;;;;;;13.10;12.00;;;13.00;99.90;;;;;;5044860;28;20649;-86
2022/10/14 02:14:04;;;;;;;12.57;11.37;;;13.20;99.90;;;;;;5038849;28;20711;-86
2022/10/14 02:16:38;;;;;;;13.67;10.33;;;13.00;99.90;;;;;;5039747;28;20663;-86
2022/10/14 02:19:16;;;;;;;12.60;11.27;;;13.20;99.90;;;;;;5047511;28;20636;-86
2022/10/14 02:21:46;;;;;;;11.43;10.20;;;12.90;99.90;;;;;;5044410;28;20606;-87
2022/10/14 02:24:19;;;;;;;12.13;11.07;;;13.20;99.90;;;;;;5042162;28;20614;-88
2022/10/14 02:26:47;;;;;;;12.60;11.40;;;12.90;99.90;;;;;;5043496;28;20637;-87
2022/10/14 02:29:15;;;;;;;16.97;11.80;;;13.00;99.90;;;;;;5044436;28;20634;-87
2022/10/14 02:31:44;;;;;;;11.80;10.70;;;13.00;99.90;;;;;;5045087;28;20629;-87
2022/10/14 02:34:14;;;;;;;11.83;10.93;;;12.80;99.90;;;;;;5041349;28;20660;-87
2022/10/14 02:36:42;;;;;;;12.77;11.47;;;13.20;99.90;;;;;;5044288;28;20663;-87
2022/10/14 02:39:13;;;;;;;13.00;9.70;;;13.20;99.90;;;;;;5040342;28;20642;-87
2022/10/14 02:41:41;;;;;;;11.63;10.37;;;12.90;99.90;;;;;;5043805;28;20650;-87
2022/10/14 02:44:08;;;;;;;10.70;9.80;;;12.80;99.90;;;;;;5043674;28;20665;-87
2022/10/14 02:46:35;;;;;;;10.13;9.20;;;13.30;99.90;;;;;;5043277;28;20897;-87
2022/10/14 02:49:03;;;;;;;10.57;9.73;;;13.00;99.90;;;;;;5044842;28;21199;-88
2022/10/14 02:51:30;;;;;;;9.97;9.00;;;12.90;99.90;;;;;;5044664;28;20663;-87
2022/10/14 02:53:57;;;;;;;9.13;8.00;;;12.80;99.90;;;;;;5045551;28;20745;-87
2022/10/14 02:56:24;;;;;;;10.50;8.40;;;13.20;99.90;;;;;;5042466;28;21069;-87
2022/10/14 02:58:51;;;;;;;11.03;8.53;;;13.20;99.90;;;;;;5041351;28;20630;-88
2022/10/14 03:01:17;;;;;;;12.27;9.60;;;12.90;99.90;;;;;;5043088;28;20633;-86
2022/10/14 03:03:44;;;;;;;10.13;9.00;;;12.90;99.90;;;;;;5043184;28;20662;-87
2022/10/14 03:06:12;;;;;;;10.63;9.57;;;13.00;99.90;;;;;;5039987;28;20626;-87
2022/10/14 03:08:39;;;;;;;10.57;9.53;;;13.20;99.90;;;;;;5038885;28;20630;-86
2022/10/14 03:11:06;;;;;;;9.97;9.07;;;12.90;99.90;;;;;;5043425;28;20678;-87
2022/10/14 03:13:33;;;;;;;12.33;8.57;;;12.80;99.90;;;;;;5043489;28;20653;-87
2022/10/14 03:16:00;;;;;;;9.70;8.53;;;12.90;99.90;;;;;;5043819;28;20666;-87
2022/10/14 03:18:26;;;;;;;10.33;9.00;;;12.70;99.90;;;;;;5040311;28;20629;-87
2022/10/14 03:20:53;;;;;;;9.93;8.90;;;12.90;99.90;;;;;;5044306;28;20630;-87
2022/10/14 03:23:21;;;;;;;11.33;10.33;;;12.80;99.90;;;;;;5044361;28;20662;-87
2022/10/14 03:25:48;;;;;;;10.93;9.63;;;13.20;99.90;;;;;;5043010;28;20626;-87
2022/10/14 03:28:15;;;;;;;9.60;8.67;;;13.20;99.90;;;;;;5044080;28;20633;-87
2022/10/14 03:30:41;;;;;;;9.90;9.10;;;12.80;99.90;;;;;;5042510;28;20630;-87
2022/10/14 03:33:08;;;;;;;15.57;9.00;;;13.10;99.90;;;;;;5043957;28;20660;-87
2022/10/14 03:35:35;;;;;;;8.53;7.73;;;12.60;99.90;;;;;;5043341;28;20672;-88
2022/10/14 03:38:02;;;;;;;9.60;8.37;;;12.90;99.90;;;;;;5044294;28;20637;-87
2022/10/14 03:40:30;;;;;;;10.07;8.63;;;12.80;99.90;;;;;;5044765;28;21199;-87
2022/10/14 03:42:59;;;;;;;9.70;8.70;;;12.80;99.90;;;;;;5041177;28;20653;-87
2022/10/14 03:45:27;;;;;;;9.20;8.50;;;13.10;99.90;;;;;;5043588;28;20688;-87
2022/10/14 03:47:56;;;;;;;10.33;9.37;;;13.00;99.90;;;;;;5044308;28;20658;-87
2022/10/14 03:50:23;;;;;;;9.03;8.27;;;12.90;99.90;;;;;;5043560;28;20652;-87
2022/10/14 03:52:50;;;;;;;10.70;8.83;;;13.00;99.90;;;;;;5035955;28;20640;-87
2022/10/14 03:55:17;;;;;;;10.23;9.33;;;12.50;99.90;;;;;;5044402;28;20668;-87
2022/10/14 03:57:45;;;;;;;10.07;9.17;;;13.00;99.90;;;;;;5046909;28;20633;-87
2022/10/14 04:00:13;;;;;;;10.23;9.07;;;13.00;99.90;;;;;;5047839;28;20653;-87
2022/10/14 04:02:40;;;;;;;10.87;9.33;;;13.10;99.90;;;;;;5044970;28;20654;-86
2022/10/14 04:05:08;;;;;;;10.40;9.50;;;12.60;99.90;;;;;;5043154;28;21031;-87
2022/10/14 04:07:41;;;;;;;10.77;9.77;;;13.20;99.90;;;;;;5042119;28;20630;-87
2022/10/14 04:10:08;;;;;;;11.63;10.53;;;13.00;99.90;;;;;;5044853;28;20694;-87
2022/10/14 04:12:40;;;;;;;12.27;10.50;;;13.00;99.90;;;;;;5047674;28;21329;-88
2022/10/14 04:15:09;;;;;;;12.33;10.00;;;12.60;99.90;;;;;;5049619;28;20709;-88
2022/10/14 04:17:36;;;;;;;10.30;9.50;;;12.90;99.90;;;;;;5047311;28;20695;-88
2022/10/14 04:20:04;;;;;;;10.53;9.50;;;12.60;99.90;;;;;;5049365;28;20657;-87
2022/10/14 04:22:32;;;;;;;11.00;10.07;;;12.80;99.90;;;;;;5042923;28;20627;-87
2022/10/14 04:24:58;;;;;;;9.13;8.23;;;12.60;99.90;;;;;;5044876;28;20646;-87
2022/10/14 04:27:25;;;;;;;10.37;9.57;;;12.80;99.90;;;;;;5044786;28;20629;-87
2022/10/14 04:29:52;;;;;;;10.20;9.40;;;12.60;99.90;;;;;;5045709;28;20649;-87
2022/10/14 04:32:20;;;;;;;10.10;9.10;;;12.90;99.90;;;;;;5046426;28;20622;-87
2022/10/14 04:34:47;;;;;;;9.30;8.50;;;12.50;99.90;;;;;;5045337;28;20637;-87
2022/10/14 04:37:14;;;;;;;11.17;10.10;;;12.40;99.90;;;;;;5048640;28;21032;-87
2022/10/14 04:39:41;;;;;;;10.83;8.73;;;12.30;99.90;;;;;;5047897;28;20658;-88
2022/10/14 04:42:08;;;;;;;10.37;9.47;;;12.50;99.90;;;;;;5047185;28;20637;-88
2022/10/14 04:44:34;;;;;;;9.43;8.67;;;12.50;99.90;;;;;;5046501;28;20634;-87
2022/10/14 04:47:01;;;;;;;17.27;12.70;;;12.80;99.90;;;;;;5047439;28;20630;-88
2022/10/14 04:49:29;;;;;;;11.90;10.90;;;12.80;99.90;;;;;;5049710;28;20672;-88
2022/10/14 04:51:56;;;;;;;13.13;11.73;;;12.50;99.90;;;;;;5048099;28;20632;-87
2022/10/14 04:54:23;;;;;;;11.50;9.50;;;12.80;99.90;;;;;;5047486;28;20649;-88
2022/10/14 04:56:50;;;;;;;10.63;9.70;;;12.90;99.90;;;;;;5046659;28;20666;-88
2022/10/14 04:59:16;;;;;;;10.47;9.47;;;12.30;99.90;;;;;;5043811;28;21432;-88
2022/10/14 05:01:44;;;;;;;10.37;9.43;;;12.80;99.90;;;;;;5040612;28;20625;-87
2022/10/14 05:04:11;;;;;;;10.47;9.57;;;12.40;99.90;;;;;;5039860;28;20978;-88
2022/10/14 05:06:39;;;;;;;10.70;9.83;;;12.40;99.90;;;;;;5045226;28;20645;-87
2022/10/14 05:09:07;;;;;;;11.63;10.57;;;12.70;99.90;;;;;;5043922;28;20618;-87
2022/10/14 05:11:33;;;;;;;10.80;10.00;;;12.30;99.90;;;;;;5047368;28;20624;-88
2022/10/14 05:14:01;;;;;;;10.50;9.60;;;12.80;99.90;;;;;;5046777;28;20713;-88
2022/10/14 05:16:27;;;;;;;10.27;9.43;;;12.30;99.90;;;;;;5041830;28;20669;-88
2022/10/14 05:18:54;;;;;;;11.90;9.37;;;12.80;99.90;;;;;;5044505;28;20626;-85
2022/10/14 05:21:21;;;;;;;11.13;9.73;;;12.80;99.90;;;;;;5045891;28;20650;-88
2022/10/14 05:23:49;;;;;;;11.30;10.40;;;12.80;99.90;;;;;;5044422;28;21210;-86
2022/10/14 05:26:16;;;;;;;13.17;11.83;;;12.50;99.90;;;;;;5044734;28;20626;-86
2022/10/14 05:28:43;;;;;;;13.97;12.77;;;12.60;99.90;;;;;;5045319;28;20660;-84
2022/10/14 05:31:10;;;;;;;16.10;14.50;;;12.90;99.90;;;;;;5046284;28;20638;-86
2022/10/14 05:33:37;;;;;;;15.33;13.83;;;12.40;99.90;;;;;;5041426;28;20624;-86
2022/10/14 05:36:04;;;;;;;16.07;14.33;;;12.80;99.90;;;;;;5046375;28;20693;-86
2022/10/14 05:38:32;;;;;;;16.37;14.73;;;13.00;99.90;;;;;;5043047;28;20625;-86
2022/10/14 05:41:00;;;;;;;17.60;15.80;;;12.50;99.90;;;;;;5046796;28;20659;-86
2022/10/14 05:43:27;;;;;;;17.63;16.00;;;12.50;99.90;;;;;;5046120;28;20622;-86
2022/10/14 05:45:53;;;;;;;22.80;17.37;;;12.80;99.90;;;;;;5043749;28;20628;-88
2022/10/14 05:48:20;;;;;;;17.43;15.50;;;12.40;99.90;;;;;;5045901;28;20701;-87
2022/10/14 05:50:47;;;;;;;19.80;18.00;;;12.40;99.90;;;;;;5045375;28;20658;-88
2022/10/14 05:53:14;;;;;;;19.83;17.70;;;12.80;99.90;;;;;;5042629;28;20630;-87
2022/10/14 05:55:41;;;;;;;26.83;17.70;;;12.40;99.90;;;;;;5042615;28;20669;-87
2022/10/14 05:58:10;;;;;;;20.47;18.40;;;12.30;99.90;;;;;;5043194;28;20736;-87
2022/10/14 06:00:36;;;;;;;20.87;18.77;;;12.40;99.90;;;;;;5042284;28;20661;-87
2022/10/14 06:03:04;;;;;;;25.80;21.10;;;12.30;99.90;;;;;;5046714;28;20629;-87
2022/10/14 06:05:35;;;;;;;21.93;19.67;;;12.80;99.90;;;;;;5045553;28;20629;-86
2022/10/14 06:08:02;;;;;;;20.13;18.10;;;12.80;99.90;;;;;;5042932;28;20602;-86
2022/10/14 06:10:29;;;;;;;19.87;17.90;;;12.90;99.90;;;;;;5045279;28;20648;-86
2022/10/14 06:12:56;;;;;;;19.10;17.43;;;12.80;99.90;;;;;;5042391;28;20618;-86
2022/10/14 06:15:24;;;;;;;19.80;17.70;;;12.90;99.90;;;;;;5041822;28;20638;-86
2022/10/14 06:17:51;;;;;;;21.03;18.37;;;12.40;99.90;;;;;;5041154;28;20661;-86
2022/10/14 06:20:18;;;;;;;21.47;19.60;;;12.90;99.90;;;;;;5044098;28;20650;-86
2022/10/14 06:22:45;;;;;;;20.00;18.00;;;12.70;99.90;;;;;;5043782;28;20643;-87
2022/10/14 06:25:11;;;;;;;20.17;18.20;;;12.50;99.90;;;;;;5043401;28;20650;-87
2022/10/14 06:27:38;;;;;;;19.60;17.70;;;13.00;99.90;;;;;;5041839;28;20628;-87
2022/10/14 06:30:06;;;;;;;19.20;17.40;;;12.90;99.90;;;;;;5043215;28;20655;-87
2022/10/14 06:32:34;;;;;;;18.47;16.77;;;13.00;99.90;;;;;;5040901;28;20639;-87
2022/10/14 06:35:02;;;;;;;20.33;18.07;;;12.60;99.90;;;;;;5044804;28;20637;-87
2022/10/14 06:37:29;;;;;;;20.10;18.30;;;13.10;99.90;;;;;;5044622;28;20673;-87
2022/10/14 06:39:57;;;;;;;18.40;16.70;;;12.80;99.90;;;;;;5047595;28;20645;-86
2022/10/14 06:42:23;;;;;;;18.37;16.27;;;13.00;99.90;;;;;;5040658;28;20638;-87
2022/10/14 06:44:50;;;;;;;20.07;18.03;;;12.90;99.90;;;;;;5047052;28;20644;-86
2022/10/14 06:47:17;;;;;;;18.63;16.93;;;12.60;99.90;;;;;;5041346;28;20611;-85
2022/10/14 06:49:45;;;;;;;20.40;16.93;;;13.00;99.90;;;;;;5060891;28;20666;-86
2022/10/14 06:52:12;;;;;;;17.57;15.97;;;12.70;99.90;;;;;;5068145;28;20617;-86
2022/10/14 06:54:39;;;;;;;19.03;17.00;;;12.60;99.90;;;;;;5063235;28;20622;-86
2022/10/14 06:57:06;;;;;;;19.30;17.37;;;13.20;99.90;;;;;;5056861;28;20669;-86
2022/10/14 06:59:32;;;;;;;18.90;17.20;;;13.20;99.90;;;;;;5044100;28;20629;-85
2022/10/14 07:01:59;;;;;;;18.83;16.80;;;13.20;99.90;;;;;;5042640;28;21188;-85
2022/10/14 07:04:26;;;;;;;17.90;16.10;;;12.70;99.90;;;;;;5044613;28;20637;-85
2022/10/14 07:06:57;;;;;;;16.40;14.67;;;13.20;99.90;;;;;;5043955;28;20657;-85
2022/10/14 07:09:24;;;;;;;16.40;14.77;;;13.00;99.90;;;;;;5045764;28;20622;-84
2022/10/14 07:11:51;;;;;;;21.57;15.57;;;13.10;99.90;;;;;;5044555;28;20679;-84
2022/10/14 07:14:18;;;;;;;17.50;14.90;;;13.30;99.90;;;;;;5039802;28;20634;-84
2022/10/14 07:16:45;;;;;;;16.03;14.43;;;13.00;99.90;;;;;;5042220;28;21363;-84
2022/10/14 07:19:12;;;;;;;15.57;14.13;;;13.00;99.90;;;;;;5038575;28;21169;-85
2022/10/14 07:21:40;;;;;;;19.87;15.00;;;13.50;99.90;;;;;;5046695;28;20625;-85
2022/10/14 07:24:10;;;;;;;15.37;13.80;;;13.30;99.90;;;;;;5046498;28;21318;-85
2022/10/14 07:26:39;;;;;;;16.07;14.60;;;13.60;99.90;;;;;;5047937;28;20649;-85
2022/10/14 07:29:06;;;;;;;15.30;13.83;;;13.50;99.90;;;;;;5047582;28;20634;-85
2022/10/14 07:31:43;;;;;;;19.00;15.90;;;13.90;99.90;;;;;;5053831;28;21154;-85
2022/10/14 07:34:10;;;;;;;15.47;13.90;;;13.90;99.90;;;;;;5050470;28;20630;-85
2022/10/14 07:36:39;;;;;;;15.43;13.93;;;13.90;99.90;;;;;;5066258;28;20783;-85
2022/10/14 07:39:11;;;;;;;15.47;13.90;;;13.90;99.90;;;;;;5072996;28;20621;-83
2022/10/14 07:41:39;;;;;;;15.03;13.70;;;13.80;99.90;;;;;;5074151;28;20705;-85
2022/10/14 07:44:08;;;;;;;22.33;18.33;;;13.60;99.90;;;;;;5069970;28;20633;-85
2022/10/14 07:46:38;;;;;;;16.73;14.80;;;13.90;99.90;;;;;;5060872;28;20753;-85
2022/10/14 07:49:06;;;;;;;13.93;12.60;;;14.00;99.90;;;;;;5066540;28;20640;-86
2022/10/14 07:51:34;;;;;;;14.10;12.73;;;14.20;99.90;;;;;;5070760;28;20633;-86
2022/10/14 07:54:03;;;;;;;17.43;12.67;;;14.30;99.90;;;;;;5074161;28;20705;-86
2022/10/14 07:56:33;;;;;;;13.20;11.63;;;14.40;99.90;;;;;;5064972;28;20757;-86
2022/10/14 07:59:00;;;;;;;17.63;13.43;;;14.50;99.90;;;;;;5056939;28;20634;-86
2022/10/14 08:01:36;;;;;;;12.87;11.67;;;14.60;99.90;;;;;;5060547;28;20641;-86
2022/10/14 08:04:04;;;;;;;15.17;12.10;;;14.60;99.90;;;;;;5046751;28;21179;-86
2022/10/14 08:06:31;;;;;;;12.27;11.17;;;14.70;99.90;;;;;;5044749;28;20655;-86
2022/10/14 08:08:58;;;;;;;13.13;9.53;;;14.70;99.90;;;;;;5045004;28;20682;-85
2022/10/14 08:11:27;;;;;;;12.20;11.10;;;14.40;99.90;;;;;;5049385;28;20626;-85
2022/10/14 08:13:55;;;;;;;12.77;11.07;;;14.50;99.90;;;;;;5045242;28;20614;-85
2022/10/14 08:16:24;;;;;;;11.83;10.83;;;14.60;99.90;;;;;;5046447;28;20665;-85
2022/10/14 08:18:51;;;;;;;11.23;10.13;;;14.60;99.90;;;;;;5047918;28;20621;-85
2022/10/14 08:21:19;;;;;;;13.73;9.90;;;14.50;99.90;;;;;;5049296;28;21160;-85
2022/10/14 08:23:46;;;;;;;14.27;12.77;;;14.60;99.90;;;;;;5046263;28;20629;-86
2022/10/14 08:26:20;;;;;;;10.07;9.17;;;14.70;99.90;;;;;;5047646;28;20653;-86
2022/10/14 08:28:47;;;;;;;14.10;10.80;;;14.70;99.90;;;;;;5048289;28;20626;-86
2022/10/14 08:31:16;;;;;;;13.90;10.80;;;14.70;99.90;;;;;;5047204;28;20625;-86
2022/10/14 08:33:43;;;;;;;16.13;10.70;;;14.60;99.90;;;;;;5045153;28;20649;-86
2022/10/14 08:36:10;;;;;;;11.33;10.13;;;14.80;99.90;;;;;;5047846;28;20664;-86
2022/10/14 08:38:37;;;;;;;13.17;9.70;;;14.80;99.90;;;;;;5042482;28;20696;-87
2022/10/14 08:41:15;;;;;;;14.00;9.70;;;14.80;99.90;;;;;;5040267;28;20634;-87
2022/10/14 08:43:50;;;;;;;12.77;9.60;;;14.70;99.90;;;;;;5042235;28;21098;-86
2022/10/14 08:46:25;;;;;;;10.47;9.07;;;14.70;99.90;;;;;;5047326;28;20649;-86
2022/10/14 08:49:02;;;;;;;17.57;10.43;;;15.00;99.90;;;;;;5046836;28;21030;-85
2022/10/14 08:51:31;;;;;;;14.80;9.33;;;15.00;99.90;;;;;;5047858;28;20625;-86
2022/10/14 08:54:05;;;;;;;13.13;9.50;;;15.10;99.90;;;;;;5047140;28;20810;-86
2022/10/14 08:56:34;;;;;;;9.30;8.20;;;15.20;99.90;;;;;;5046617;28;20660;-86
2022/10/14 08:59:06;;;;;;;9.57;8.77;;;15.00;99.90;;;;;;5048193;28;20621;-86
2022/10/14 09:01:36;;;;;;;10.23;8.70;;;15.00;99.90;;;;;;5045740;28;20644;-84
2022/10/14 09:04:05;;;;;;;21.40;9.67;;;14.80;99.90;;;;;;5049008;28;21158;-87
2022/10/14 09:06:34;;;;;;;12.83;9.20;;;15.10;99.90;;;;;;5040985;28;21269;-87
2022/10/14 09:09:09;;;;;;;11.80;8.20;;;15.20;99.90;;;;;;5046950;28;20630;-88
2022/10/14 09:11:40;;;;;;;10.87;9.00;;;15.10;99.90;;;;;;5046917;28;20625;-85
2022/10/14 09:14:09;;;;;;;15.67;9.50;;;15.30;99.90;;;;;;5046378;28;20629;-85
2022/10/14 09:16:44;;;;;;;9.80;8.33;;;15.40;99.90;;;;;;5044921;28;20649;-85
2022/10/14 09:19:25;;;;;;;15.90;8.73;;;15.50;99.90;;;;;;5044586;28;20717;-85
2022/10/14 09:21:54;;;;;;;10.80;9.07;;;15.70;99.90;;;;;;5045668;28;20630;-85
2022/10/14 09:24:23;;;;;;;10.33;8.70;;;15.80;99.90;;;;;;5045633;28;20630;-87
2022/10/14 09:26:54;;;;;;;9.47;8.67;;;15.90;99.90;;;;;;5047854;28;20693;-86
2022/10/14 09:29:26;;;;;;;9.53;8.40;;;15.80;99.90;;;;;;5046125;28;20630;-86
2022/10/14 09:31:58;;;;;;;8.67;7.50;;;16.10;99.90;;;;;;5046276;28;20633;-86
2022/10/14 09:34:33;;;;;;;8.63;7.77;;;16.30;99.90;;;;;;5027618;28;20669;-88
2022/10/14 09:37:18;;;;;;;8.53;7.70;;;16.40;99.90;;;;;;5046409;28;21028;-86
2022/10/14 09:39:46;;;;;;;8.90;8.00;;;16.30;99.90;;;;;;5045001;28;20618;-86
2022/10/14 09:42:18;;;;;;;8.27;7.47;;;16.20;99.90;;;;;;5046416;28;20656;-86
2022/10/14 09:44:44;;;;;;;9.33;7.60;;;16.10;99.90;;;;;;5042482;28;20618;-88
2022/10/14 09:47:17;;;;;;;9.23;7.10;;;15.80;99.90;;;;;;5044688;28;20621;-86
2022/10/14 09:49:47;;;;;;;7.10;5.67;;;16.20;99.90;;;;;;5045282;28;20840;-86
2022/10/14 09:52:21;;;;;;;8.20;5.37;;;16.20;99.90;;;;;;5046146;28;21721;-86
2022/10/14 09:54:53;;;;;;;7.40;5.60;;;16.30;99.90;;;;;;5044742;28;20626;-87
2022/10/14 09:57:20;;;;;;;8.83;6.77;;;16.30;99.90;;;;;;5046716;28;21005;-87
2022/10/14 09:59:53;;;;;;;7.23;6.40;;;16.40;99.90;;;;;;5046191;28;20634;-86
2022/10/14 10:02:25;;;;;;;8.10;7.40;;;16.50;99.90;;;;;;5047125;28;20614;-86
2022/10/14 10:04:53;;;;;;;9.73;6.03;;;16.50;99.90;;;;;;5046620;28;20668;-86
2022/10/14 10:07:28;;;;;;;8.27;7.47;;;16.40;99.90;;;;;;5042271;28;20725;-86
2022/10/14 10:09:55;;;;;;;10.43;7.53;;;16.70;99.90;;;;;;5046580;28;20640;-86
2022/10/14 10:12:30;;;;;;;7.20;6.60;;;16.90;99.90;;;;;;5046558;28;20645;-86
2022/10/14 10:14:58;;;;;;;8.90;8.00;;;17.40;99.90;;;;;;5045127;28;20618;-86
2022/10/14 10:17:27;;;;;;;11.57;6.87;;;17.30;99.90;;;;;;5045803;28;21226;-86
2022/10/14 10:20:18;;;;;;;9.47;7.87;;;17.40;99.90;;;;;;5045463;28;20642;-86
2022/10/14 10:22:45;;;;;;;8.23;6.60;;;17.40;99.90;;;;;;5043476;28;20641;-86
2022/10/14 10:25:25;;;;;;;9.70;8.20;;;17.50;99.90;;;;;;5042570;28;20666;-87
2022/10/14 10:27:53;;;;;;;6.97;6.27;;;17.80;99.90;;;;;;5045479;28;21472;-86
2022/10/14 10:30:23;;;;;;;7.13;5.87;;;18.00;99.90;;;;;;5044431;28;20680;-87
2022/10/14 10:33:03;;;;;;;8.17;6.17;;;18.20;99.90;;;;;;5041776;28;20742;-86
2022/10/14 10:35:42;;;;;;;11.50;7.43;;;18.10;99.90;;;;;;5046939;28;20654;-87
2022/10/14 10:38:19;;;;;;;9.40;7.77;;;17.90;99.90;;;;;;5042476;28;20660;-87
2022/10/14 10:40:54;;;;;;;8.20;6.00;;;17.80;99.90;;;;;;5046012;28;20950;-87
2022/10/14 10:43:43;;;;;;;9.27;5.87;;;17.90;99.90;;;;;;5044958;28;20629;-87
2022/10/14 10:46:23;;;;;;;5.93;5.30;;;17.30;99.90;;;;;;5039741;28;20650;-87
2022/10/14 10:49:00;;;;;;;8.20;6.43;;;17.40;99.90;;;;;;5042743;28;20656;-86
2022/10/14 10:51:35;;;;;;;5.17;4.67;;;17.40;99.90;;;;;;5045792;28;20653;-87
2022/10/14 10:54:07;;;;;;;5.87;5.27;;;17.30;99.90;;;;;;5043865;28;21171;-86
2022/10/14 10:56:41;;;;;;;7.17;4.90;;;17.40;99.90;;;;;;5044746;28;20688;-86
2022/10/14 10:59:42;;;;;;;7.00;5.37;;;17.50;99.90;;;;;;5038558;28;20681;-87
2022/10/14 11:02:44;;;;;;;6.70;5.97;;;17.80;99.90;;;;;;5039945;28;20975;-87
2022/10/14 11:05:18;;;;;;;6.67;5.27;;;17.90;99.90;;;;;;5040101;28;21406;-87
2022/10/14 11:13:45;;;;;;;6.80;4.97;;;17.70;99.90;;;;;;5037014;28;21187;-87
2022/10/14 11:16:18;;;;;;;8.40;6.90;;;17.70;99.90;;;;;;5025807;28;20646;-86
2022/10/14 11:18:49;;;;;;;9.23;5.60;;;17.40;99.90;;;;;;5041108;28;21262;-86
2022/10/14 11:21:29;;;;;;;8.03;6.03;;;17.40;99.90;;;;;;5046497;28;20765;-86
2022/10/14 11:24:06;;;;;;;10.77;6.77;;;17.30;99.90;;;;;;5039670;28;21225;-87
2022/10/14 11:26:47;;;;;;;8.47;4.90;;;17.20;99.90;;;;;;5044665;28;20656;-86
2022/10/14 11:29:34;;;;;;;7.27;6.57;;;17.20;99.90;;;;;;5042627;28;20626;-86
2022/10/14 11:32:10;;;;;;;10.70;6.80;;;17.30;99.90;;;;;;5043508;28;21003;-86
2022/10/14 11:34:43;;;;;;;10.40;7.17;;;17.20;99.90;;;;;;5042504;28;20621;-86
2022/10/14 11:37:27;;;;;;;7.37;6.63;;;17.20;99.90;;;;;;5043364;28;21582;-87
2022/10/14 11:39:57;;;;;;;11.33;5.73;;;17.20;99.90;;;;;;5043946;28;20613;-87
2022/10/14 11:42:30;;;;;;;11.60;6.40;;;17.00;99.90;;;;;;5045275;28;21168;-86
2022/10/14 11:45:10;;;;;;;8.00;6.50;;;17.20;99.90;;;;;;5042802;28;20785;-87
2022/10/14 11:47:40;;;;;;;8.50;7.20;;;17.30;99.90;;;;;;5041465;28;20717;-88
2022/10/14 11:50:16;;;;;;;5.30;4.80;;;17.20;99.90;;;;;;5045621;28;21049;-87
2022/10/14 11:52:49;;;;;;;8.03;4.43;;;17.00;99.90;;;;;;5036666;28;21382;-87
2022/10/14 11:58:20;;;;;;;5.73;3.47;;;16.90;99.90;;;;;;5044810;28;20660;-87
2022/10/14 12:01:12;;;;;;;5.47;3.23;;;17.20;99.90;;;;;;5043779;28;20633;-87
2022/10/14 12:03:50;;;;;;;5.90;3.20;;;17.50;99.90;;;;;;5042638;28;20695;-87
2022/10/14 12:06:19;;;;;;;3.77;3.47;;;17.70;99.90;;;;;;5044289;28;20649;-86
2022/10/14 12:08:54;;;;;;;3.83;3.43;;;18.10;99.90;;;;;;5043667;28;20660;-86
2022/10/14 12:11:29;;;;;;;3.33;2.70;;;18.70;99.90;;;;;;5041112;28;20696;-85
2022/10/14 12:14:11;;;;;;;3.10;2.90;;;18.40;99.90;;;;;;5043470;28;20625;-86
2022/10/14 12:16:40;;;;;;;3.77;2.70;;;18.30;99.90;;;;;;5044966;28;20653;-85
2022/10/14 12:19:10;;;;;;;2.77;2.57;;;18.50;99.90;;;;;;5049945;28;21460;-86
2022/10/14 12:21:46;;;;;;;3.00;2.40;;;18.40;99.90;;;;;;5047212;28;20622;-86
2022/10/14 12:24:19;;;;;;;3.13;2.37;;;17.80;99.90;;;;;;5045715;28;20632;-87
2022/10/14 12:26:54;;;;;;;5.63;2.23;;;17.90;99.90;;;;;;5041542;28;20690;-87
2022/10/14 12:29:24;;;;;;;4.93;2.13;;;18.20;99.90;;;;;;5045082;28;21217;-87
2022/10/14 12:32:07;;;;;;;1.83;1.73;;;18.50;99.90;;;;;;5048554;28;20618;-87
2022/10/14 12:34:36;;;;;;;2.87;2.07;;;18.30;99.90;;;;;;5043475;28;20626;-86
2022/10/14 12:37:49;;;;;;;4.20;2.30;;;18.20;99.90;;;;;;5045347;28;20652;-86
2022/10/14 12:40:24;;;;;;;2.20;1.87;;;18.40;99.90;;;;;;5047961;28;20622;-86
2022/10/14 12:43:03;;;;;;;2.80;2.37;;;18.60;99.90;;;;;;5046721;28;20637;-86
2022/10/14 12:45:32;;;;;;;2.20;2.00;;;18.60;99.90;;;;;;5042815;28;21231;-87
2022/10/14 12:48:13;;;;;;;3.90;1.67;;;18.70;99.90;;;;;;5047524;28;20713;-86
2022/10/14 12:50:42;;;;;;;8.13;2.07;;;18.20;99.90;;;;;;5047594;28;20665;-87
2022/10/14 12:53:21;;;;;;;2.70;1.73;;;18.30;99.90;;;;;;5037160;28;20625;-86
2022/10/14 12:55:52;;;;;;;3.93;1.83;;;18.30;99.90;;;;;;5047352;28;20637;-86
2022/10/14 12:58:25;;;;;;;3.17;1.80;;;18.20;99.90;;;;;;5047487;28;20816;-87
2022/10/14 13:00:58;;;;;;;3.10;1.90;;;18.30;99.90;;;;;;5045316;28;20744;-87
2022/10/14 13:03:28;;;;;;;2.20;1.67;;;18.40;99.90;;;;;;5047212;28;21156;-87